Time;durP1;ratioP1;P1;durP2;ratioP2;P2;SDS_P1;SDS_P2;PMS_P1;PMS_P2;Temp;Humidity;BMP_temperature;BMP_pressure;BME280_temperature;BME280_humidity;BME280_pressure;Samples;Min_cycle;Max_cycle;Signal;HPM_P1;HPM_P2
2023/03/08 00:01:24;;;;;;;9.82;8.30;;;9.60;99.90;;;;;;4877150;29;20030;-94
2023/03/08 00:03:54;;;;;;;13.30;8.98;;;9.60;99.90;;;;;;4877303;29;20121;-92
2023/03/08 00:06:21;;;;;;;9.70;8.50;;;9.60;99.90;;;;;;4877178;29;20033;-91
2023/03/08 00:08:48;;;;;;;9.15;7.90;;;9.50;99.90;;;;;;4877310;29;20377;-94
2023/03/08 00:11:15;;;;;;;13.15;9.40;;;9.40;99.90;;;;;;4877103;29;20029;-92
2023/03/08 00:13:41;;;;;;;12.85;8.85;;;9.30;99.90;;;;;;4861604;29;20136;-92
2023/03/08 00:16:11;;;;;;;13.57;8.73;;;9.20;99.90;;;;;;4883700;29;20029;-91
2023/03/08 00:18:38;;;;;;;10.82;8.48;;;9.10;99.90;;;;;;4879995;29;20124;-93
2023/03/08 00:21:10;;;;;;;11.20;8.57;;;9.10;99.90;;;;;;4904216;29;20380;-92
2023/03/08 00:23:37;;;;;;;12.27;8.15;;;9.10;99.90;;;;;;4880440;29;20092;-93
2023/03/08 00:26:03;;;;;;;12.80;9.02;;;9.00;99.90;;;;;;4864460;29;20033;-92
2023/03/08 00:28:37;;;;;;;15.90;9.35;;;8.90;99.90;;;;;;4864776;29;20037;-91
2023/03/08 00:31:06;;;;;;;14.80;9.10;;;8.80;99.90;;;;;;4864962;29;20057;-93
2023/03/08 00:33:34;;;;;;;14.35;8.57;;;8.80;99.90;;;;;;4864297;29;20317;-93
2023/03/08 00:36:05;;;;;;;10.02;9.10;;;8.70;99.90;;;;;;4864394;29;20025;-93
2023/03/08 00:38:36;;;;;;;12.35;8.57;;;8.60;99.90;;;;;;4864304;29;20510;-91
2023/03/08 00:41:03;;;;;;;9.45;8.50;;;8.60;99.90;;;;;;4864158;29;20041;-92
2023/03/08 00:43:32;;;;;;;9.60;8.65;;;8.50;99.90;;;;;;4864626;29;20033;-92
2023/03/08 00:46:03;;;;;;;13.85;9.57;;;8.50;99.90;;;;;;4864729;29;20025;-90
2023/03/08 00:48:30;;;;;;;13.30;9.48;;;8.50;99.90;;;;;;4865140;29;20033;-92
2023/03/08 00:51:02;;;;;;;12.02;8.93;;;8.40;99.90;;;;;;4864223;29;20025;-94
2023/03/08 00:53:38;;;;;;;13.90;9.38;;;8.40;99.90;;;;;;4866963;29;20041;-94
2023/03/08 00:56:05;;;;;;;13.38;9.20;;;8.30;99.90;;;;;;4898223;29;20028;-93
2023/03/08 00:58:32;;;;;;;11.75;8.98;;;8.30;99.90;;;;;;4914097;29;20033;-91
2023/03/08 01:00:59;;;;;;;15.02;10.18;;;8.30;99.90;;;;;;4898631;29;20044;-92
2023/03/08 01:03:26;;;;;;;15.48;9.75;;;8.30;99.90;;;;;;4882719;29;20033;-93
2023/03/08 01:05:56;;;;;;;19.75;9.77;;;8.30;99.90;;;;;;4898192;29;20395;-92
2023/03/08 01:08:25;;;;;;;11.98;9.63;;;8.20;99.90;;;;;;4898643;29;20040;-91
2023/03/08 01:10:58;;;;;;;15.88;9.20;;;8.20;99.90;;;;;;4913945;29;20517;-92
2023/03/08 01:13:27;;;;;;;10.13;8.40;;;8.20;99.90;;;;;;4897901;29;20111;-92
2023/03/08 01:16:27;;;;;;;11.43;8.55;;;8.10;99.90;;;;;;4916775;29;20092;-94
2023/03/08 01:18:59;;;;;;;11.70;8.07;;;8.10;99.90;;;;;;4897203;29;20502;-91
2023/03/08 01:21:28;;;;;;;11.35;9.38;;;8.10;99.90;;;;;;4909204;29;20574;-93
2023/03/08 01:23:55;;;;;;;14.15;8.70;;;8.00;99.90;;;;;;4917049;29;20039;-92
2023/03/08 01:26:25;;;;;;;10.05;8.13;;;8.00;99.90;;;;;;4901358;29;20036;-93
2023/03/08 01:28:56;;;;;;;11.93;8.13;;;8.00;99.90;;;;;;4917553;29;20052;-93
2023/03/08 01:31:25;;;;;;;12.43;8.10;;;8.00;99.90;;;;;;4916960;29;20059;-93
2023/03/08 01:33:53;;;;;;;11.43;8.05;;;7.90;99.90;;;;;;4901208;29;20043;-94
2023/03/08 01:36:22;;;;;;;14.80;7.93;;;7.90;99.90;;;;;;4904945;29;20091;-92
2023/03/08 01:38:49;;;;;;;15.32;8.15;;;7.90;99.90;;;;;;4901873;29;20387;-93
2023/03/08 01:41:24;;;;;;;11.20;7.95;;;7.80;99.90;;;;;;4892044;29;20061;-93
2023/03/08 01:43:51;;;;;;;13.75;8.07;;;7.70;99.90;;;;;;4882716;29;20032;-93
2023/03/08 01:46:34;;;;;;;12.98;7.80;;;7.80;99.90;;;;;;4882349;29;20083;-92
2023/03/08 01:49:29;;;;;;;15.45;8.20;;;7.80;99.90;;;;;;4897880;29;20036;-94
2023/03/08 01:52:01;;;;;;;15.52;8.52;;;7.80;99.90;;;;;;4882672;29;20032;-91
2023/03/08 01:54:35;;;;;;;13.55;8.18;;;7.80;99.90;;;;;;4882356;29;20510;-94
2023/03/08 01:57:07;;;;;;;9.13;8.23;;;7.80;99.90;;;;;;4882157;29;20036;-93
2023/03/08 01:59:34;;;;;;;15.13;8.43;;;7.80;99.90;;;;;;4882313;29;20100;-93
2023/03/08 02:02:04;;;;;;;13.60;8.73;;;7.80;99.90;;;;;;4881899;29;20032;-93
2023/03/08 02:04:34;;;;;;;13.15;8.77;;;7.80;99.90;;;;;;4882860;29;20035;-94
2023/03/08 02:07:00;;;;;;;13.95;8.63;;;7.90;99.90;;;;;;4883049;29;20033;-92
2023/03/08 02:09:27;;;;;;;13.27;8.98;;;7.90;99.90;;;;;;4886278;29;20036;-92
2023/03/08 02:11:59;;;;;;;16.15;9.23;;;7.90;99.90;;;;;;4885560;29;20036;-93
2023/03/08 02:14:27;;;;;;;20.27;10.00;;;8.00;99.90;;;;;;4885573;29;20088;-94
2023/03/08 02:16:54;;;;;;;18.17;10.07;;;8.10;99.90;;;;;;4885359;29;20025;-92
2023/03/08 02:19:38;;;;;;;17.92;9.70;;;8.20;99.90;;;;;;4885739;29;20040;-91
2023/03/08 02:22:09;;;;;;;;;;;8.20;99.90;;;;;;4896158;29;20041;-94
2023/03/08 02:24:35;;;;;;;13.23;9.75;;;8.20;99.90;;;;;;4882572;29;19955;-93
2023/03/08 02:27:08;;;;;;;15.93;9.10;;;8.20;99.90;;;;;;4882441;29;20028;-93
2023/03/08 02:29:35;;;;;;;17.02;9.93;;;8.20;99.90;;;;;;4882711;29;20506;-91
2023/03/08 02:32:01;;;;;;;14.93;9.63;;;8.20;99.90;;;;;;4882845;29;20033;-92
2023/03/08 02:34:29;;;;;;;13.18;9.00;;;8.20;99.90;;;;;;4882376;29;20048;-92
2023/03/08 02:36:57;;;;;;;13.65;9.82;;;8.20;99.90;;;;;;4882381;29;20025;-93
2023/03/08 02:39:23;;;;;;;11.77;8.75;;;8.20;99.90;;;;;;4882364;29;20119;-91
2023/03/08 02:41:50;;;;;;;14.00;9.38;;;8.10;99.90;;;;;;4881875;29;20025;-92
2023/03/08 02:44:16;;;;;;;14.43;9.20;;;8.00;99.90;;;;;;4882674;29;20387;-94
2023/03/08 02:46:43;;;;;;;15.68;8.77;;;7.90;99.90;;;;;;4881871;29;20395;-92
2023/03/08 02:49:10;;;;;;;11.30;9.20;;;7.90;99.90;;;;;;4881896;29;20104;-92
2023/03/08 02:51:36;;;;;;;15.32;8.43;;;7.80;99.90;;;;;;4879893;29;20025;-92
2023/03/08 02:54:03;;;;;;;11.20;8.00;;;8.00;99.90;;;;;;4863506;29;20068;-92
2023/03/08 02:56:29;;;;;;;13.38;7.50;;;8.10;99.90;;;;;;4879494;29;20113;-92
2023/03/08 02:58:56;;;;;;;12.10;7.28;;;8.30;99.90;;;;;;4866892;29;20065;-92
2023/03/08 03:01:23;;;;;;;9.40;6.88;;;8.40;99.90;;;;;;4879001;29;20033;-93
2023/03/08 03:03:53;;;;;;;9.73;7.50;;;8.50;99.90;;;;;;4863076;29;20036;-91
2023/03/08 03:06:23;;;;;;;12.35;7.20;;;8.50;99.90;;;;;;4863750;29;20037;-92
2023/03/08 03:09:40;;;;;;;14.23;7.82;;;8.40;99.90;;;;;;4883458;29;20061;-94
2023/03/08 04:31:40;;;;;;;7.40;6.32;;;7.60;99.90;;;;;;4832441;29;20105;-92
2023/03/08 04:38:06;;;;;;;10.20;6.63;;;7.40;99.90;;;;;;4842907;29;20045;-93
2023/03/08 04:42:00;;;;;;;8.25;6.63;;;7.40;99.90;;;;;;4812915;29;20090;-92
2023/03/08 05:23:06;;;;;;;16.60;9.70;;;7.20;99.90;;;;;;4919097;29;20039;-93
2023/03/08 05:26:07;;;;;;;26.77;11.10;;;7.10;99.90;;;;;;4924502;29;20492;-91
2023/03/08 05:29:39;;;;;;;;;;;;;;;;;;;;;
2023/03/08 05:33:21;;;;;;;;;;;;;;;;;;;;;
2023/03/08 05:43:09;;;;;;;11.95;7.85;;;7.50;99.90;;;;;;4834682;23;20058;-92
2023/03/08 05:46:02;;;;;;;12.35;8.73;;;7.70;99.90;;;;;;4791265;30;20043;-90
2023/03/08 05:48:33;;;;;;;16.42;8.18;;;7.80;99.90;;;;;;4776030;30;20108;-91
2023/03/08 05:51:09;;;;;;;14.30;7.75;;;8.00;99.90;;;;;;4783904;30;20055;-90
2023/03/08 05:53:36;;;;;;;15.60;8.13;;;8.20;99.90;;;;;;4773137;30;20044;-91
2023/03/08 05:57:27;;;;;;;10.15;7.93;;;8.40;99.90;;;;;;4762321;30;20048;-94
2023/03/08 05:59:59;;;;;;;13.63;8.50;;;8.70;99.90;;;;;;5019433;23;20067;-91
2023/03/08 06:08:52;;;;;;;15.55;8.43;;;10.00;99.90;;;;;;4920299;29;20036;-90
2023/03/08 06:11:19;;;;;;;16.73;8.85;;;10.80;99.90;;;;;;4905250;29;20036;-92
2023/03/08 06:13:48;;;;;;;13.07;10.52;;;11.60;99.90;;;;;;4905036;29;20032;-91
2023/03/08 06:16:15;;;;;;;15.90;12.25;;;12.60;99.90;;;;;;4904487;29;20036;-91
2023/03/08 06:18:42;;;;;;;17.85;16.05;;;12.90;99.90;;;;;;4904256;29;20032;-92
2023/03/08 06:21:14;;;;;;;19.40;17.83;;;12.80;99.90;;;;;;4904386;29;20107;-92
2023/03/08 06:23:43;;;;;;;20.02;18.52;;;12.50;99.90;;;;;;4904166;29;20036;-92
2023/03/08 06:26:10;;;;;;;20.98;19.05;;;12.20;99.90;;;;;;4904148;29;20567;-92
2023/03/08 06:28:39;;;;;;;20.90;18.48;;;11.90;99.90;;;;;;4905034;29;20426;-92
2023/03/08 06:31:11;;;;;;;19.48;17.65;;;11.70;99.90;;;;;;4904484;29;20035;-93
2023/03/08 06:33:37;;;;;;;19.80;17.77;;;11.70;99.90;;;;;;4904338;29;20637;-91
2023/03/08 06:36:08;;;;;;;19.35;17.52;;;11.60;99.90;;;;;;4904213;29;20031;-90
2023/03/08 06:38:37;;;;;;;18.35;16.55;;;11.60;99.90;;;;;;4904981;29;20039;-90
2023/03/08 06:41:06;;;;;;;19.30;16.95;;;11.50;99.90;;;;;;4905527;29;20123;-90
2023/03/08 06:43:34;;;;;;;18.67;16.85;;;11.50;99.90;;;;;;4901771;29;20028;-92
2023/03/08 06:46:05;;;;;;;19.02;16.95;;;11.50;99.90;;;;;;4903009;29;20038;-91
2023/03/08 06:48:34;;;;;;;33.95;26.50;;;11.80;99.90;;;;;;4901125;29;20044;-94
2023/03/08 06:51:01;;;;;;;21.95;19.80;;;12.30;99.90;;;;;;4904475;29;20029;-91
2023/03/08 06:53:27;;;;;;;19.67;17.90;;;12.90;99.90;;;;;;4918151;29;20045;-92
2023/03/08 06:56:01;;;;;;;20.95;19.27;;;13.20;99.90;;;;;;4912988;29;20051;-91
2023/03/08 06:58:30;;;;;;;20.67;19.08;;;13.70;99.90;;;;;;4893388;29;20576;-90
2023/03/08 07:01:03;;;;;;;21.65;19.80;;;14.10;99.90;;;;;;4901444;29;20487;-93
2023/03/08 07:03:29;;;;;;;21.88;19.83;;;14.10;99.90;;;;;;4900551;29;20483;-92
2023/03/08 07:06:08;;;;;;;21.80;20.08;;;14.00;99.90;;;;;;4900526;29;20392;-91
2023/03/08 07:08:35;;;;;;;22.45;20.52;;;14.00;99.90;;;;;;4903606;29;20068;-95
2023/03/08 07:11:02;;;;;;;21.75;20.15;;;13.80;99.90;;;;;;4901105;29;20044;-90
2023/03/08 07:13:28;;;;;;;22.65;20.40;;;14.00;99.90;;;;;;4902193;29;20041;-93
2023/03/08 07:15:55;;;;;;;21.20;19.58;;;14.10;99.90;;;;;;4918673;29;20040;-91
2023/03/08 07:18:22;;;;;;;20.77;19.08;;;14.10;99.90;;;;;;4922182;29;20032;-91
2023/03/08 07:20:59;;;;;;;21.77;20.17;;;14.20;99.90;;;;;;4923879;29;20032;-92
2023/03/08 07:23:25;;;;;;;22.55;20.58;;;14.30;99.90;;;;;;4922573;29;20122;-94
2023/03/08 07:25:52;;;;;;;23.40;21.52;;;14.30;99.90;;;;;;4922213;29;20090;-92
2023/03/08 07:28:20;;;;;;;25.08;22.92;;;14.40;99.90;;;;;;4922328;29;20063;-93
2023/03/08 07:30:48;;;;;;;24.98;22.73;;;14.80;99.90;;;;;;4917676;29;20024;-92
2023/03/08 07:33:16;;;;;;;23.35;21.50;;;15.30;99.90;;;;;;4937757;29;20036;-91
2023/03/08 07:35:43;;;;;;;20.45;18.80;;;15.80;99.90;;;;;;4922476;29;20517;-93
2023/03/08 07:38:11;;;;;;;20.10;18.65;;;16.10;99.90;;;;;;4938911;29;20028;-91
2023/03/08 07:40:38;;;;;;;20.70;19.23;;;16.40;99.90;;;;;;4938506;29;20035;-93
2023/03/08 07:43:05;;;;;;;20.83;19.15;;;16.60;99.90;;;;;;4937841;29;20028;-93
2023/03/08 10:29:32;;;;;;;21.70;20.33;;;19.00;99.90;;;;;;5172769;23;19979;-90
2023/03/08 10:31:58;;;;;;;21.00;19.90;;;19.00;99.90;;;;;;4907099;29;20032;-89
2023/03/08 10:34:29;;;;;;;20.92;19.67;;;19.30;99.90;;;;;;4906779;29;20032;-88
2023/03/08 10:37:03;;;;;;;21.23;19.85;;;19.30;99.90;;;;;;4906196;29;20039;-90
2023/03/08 10:39:29;;;;;;;21.27;19.88;;;19.30;99.90;;;;;;4890877;29;20036;-89
2023/03/08 10:42:05;;;;;;;22.20;20.58;;;19.40;99.90;;;;;;4906449;29;20383;-89
2023/03/08 10:44:43;;;;;;;21.75;20.45;;;19.40;99.90;;;;;;4890751;29;20167;-91
2023/03/08 10:47:23;;;;;;;21.60;20.42;;;19.30;99.90;;;;;;4891071;29;20035;-90
2023/03/08 10:50:18;;;;;;;21.88;20.58;;;19.20;99.90;;;;;;4906665;29;20043;-92
2023/03/08 10:52:47;;;;;;;21.70;20.40;;;19.60;99.90;;;;;;4890374;29;20063;-91
2023/03/08 10:55:23;;;;;;;22.50;21.10;;;19.60;99.90;;;;;;4888173;29;20080;-91
2023/03/08 10:57:59;;;;;;;22.15;20.67;;;19.60;99.90;;;;;;4903673;29;20497;-91
2023/03/08 11:00:38;;;;;;;21.98;20.67;;;19.60;99.90;;;;;;4888337;29;20028;-91
2023/03/08 11:03:20;;;;;;;22.38;21.00;;;19.70;99.90;;;;;;4888412;29;20045;-90
2023/03/08 11:05:57;;;;;;;22.60;20.98;;;19.80;99.90;;;;;;4885369;29;20067;-91
2023/03/08 11:08:33;;;;;;;22.52;21.17;;;19.70;99.90;;;;;;4884999;29;20025;-88
2023/03/08 11:11:11;;;;;;;22.33;21.13;;;19.50;99.90;;;;;;4884466;29;20086;-89
2023/03/08 11:13:45;;;;;;;23.10;21.70;;;19.60;99.90;;;;;;4884602;29;20398;-90
2023/03/08 11:16:50;;;;;;;23.27;21.88;;;19.70;99.90;;;;;;4885521;29;20131;-90
2023/03/08 11:19:31;;;;;;;22.50;21.10;;;19.70;99.90;;;;;;4884695;29;20145;-88
2023/03/08 11:22:06;;;;;;;23.55;21.75;;;20.00;99.90;;;;;;4885537;29;20040;-91
2023/03/08 11:24:58;;;;;;;22.90;21.35;;;20.00;99.90;;;;;;4870545;29;20033;-91
2023/03/08 11:27:52;;;;;;;23.10;21.50;;;20.10;99.90;;;;;;4886003;29;20037;-91
2023/03/08 11:30:55;;;;;;;23.20;21.58;;;19.70;99.90;;;;;;4864400;29;20054;-90
2023/03/08 11:33:43;;;;;;;23.67;21.52;;;19.60;99.90;;;;;;4848488;29;20521;-91
2023/03/08 11:36:36;;;;;;;22.50;21.10;;;19.70;99.90;;;;;;4848646;29;20040;-87
2023/03/08 11:39:27;;;;;;;24.92;23.30;;;20.00;99.90;;;;;;4847592;29;20045;-88
2023/03/08 11:42:12;;;;;;;23.80;22.30;;;20.10;99.90;;;;;;4847314;29;20399;-91
2023/03/08 11:44:56;;;;;;;;;;;20.50;99.90;;;;;;4848759;29;20037;-88
2023/03/08 11:47:33;;;;;;;23.50;22.07;;;20.60;99.90;;;;;;4862613;29;19912;-88
2023/03/08 11:50:09;;;;;;;24.20;22.70;;;20.70;99.90;;;;;;4847214;29;20282;-91
2023/03/08 11:54:11;;;;;;;23.42;21.85;;;20.40;99.90;;;;;;5072068;28;20417;-86
2023/03/08 11:56:54;;;;;;;23.60;22.27;;;20.40;99.90;;;;;;5070320;28;20043;-86
2023/03/08 11:59:27;;;;;;;24.02;22.63;;;20.50;99.90;;;;;;5071398;28;20075;-87
2023/03/08 12:02:09;;;;;;;23.80;22.50;;;20.50;99.90;;;;;;5070392;28;20033;-87
2023/03/08 12:05:12;;;;;;;23.88;22.42;;;19.90;99.90;;;;;;5053676;28;20029;-87
2023/03/08 12:08:11;;;;;;;24.20;22.85;;;19.60;99.90;;;;;;5070165;28;20055;-87
2023/03/08 12:10:48;;;;;;;24.17;22.67;;;19.90;99.90;;;;;;5053045;28;20045;-87
2023/03/08 12:13:40;;;;;;;24.15;22.85;;;19.90;99.90;;;;;;5053057;28;20049;-86
2023/03/08 12:16:43;;;;;;;24.77;23.33;;;19.90;99.90;;;;;;5033619;28;20024;-85
2023/03/08 12:19:28;;;;;;;25.52;23.80;;;20.00;99.90;;;;;;5046333;28;20028;-86
2023/03/08 12:22:19;;;;;;;25.45;23.95;;;20.20;99.90;;;;;;5035363;28;20132;-85
2023/03/08 12:24:48;;;;;;;26.17;24.35;;;20.50;99.90;;;;;;5052161;28;20024;-85
2023/03/08 12:27:39;;;;;;;25.17;23.77;;;20.70;99.90;;;;;;5035647;28;20035;-86
2023/03/08 12:31:02;;;;;;;25.58;24.10;;;20.80;99.90;;;;;;5052509;28;20463;-85
2023/03/08 12:33:31;;;;;;;25.70;24.25;;;20.80;99.90;;;;;;4957374;28;20050;-85
2023/03/08 12:36:00;;;;;;;25.10;23.48;;;20.80;99.90;;;;;;4972949;28;20022;-84
2023/03/08 12:38:44;;;;;;;24.50;23.10;;;20.70;99.90;;;;;;5021381;28;20043;-86
2023/03/08 12:41:43;;;;;;;25.13;23.73;;;20.60;99.90;;;;;;5032098;28;20494;-85
2023/03/08 12:44:28;;;;;;;24.67;23.27;;;20.50;99.90;;;;;;4989643;28;20069;-86
2023/03/08 12:46:59;;;;;;;26.05;24.30;;;20.70;99.90;;;;;;4957120;28;20117;-85
2023/03/08 12:49:38;;;;;;;25.88;23.90;;;20.80;99.90;;;;;;4989141;28;20042;-84
2023/03/08 12:52:29;;;;;;;24.50;22.90;;;20.70;99.90;;;;;;4989061;28;20159;-86
2023/03/08 12:54:59;;;;;;;24.75;23.05;;;20.60;99.90;;;;;;4956928;28;20039;-87
2023/03/08 12:57:36;;;;;;;24.52;23.05;;;20.50;99.90;;;;;;4989377;28;20034;-88
2023/03/08 13:00:24;;;;;;;24.25;22.85;;;20.40;99.90;;;;;;4988992;28;20069;-86
2023/03/08 13:03:12;;;;;;;24.67;22.95;;;20.20;99.90;;;;;;4989412;28;20031;-88
2023/03/08 13:05:44;;;;;;;24.70;23.17;;;20.40;99.90;;;;;;4972365;28;20096;-85
2023/03/08 13:08:13;;;;;;;24.67;23.02;;;20.40;99.90;;;;;;4963235;28;20029;-85
2023/03/08 13:10:41;;;;;;;24.83;23.33;;;20.30;99.90;;;;;;4963157;28;20030;-87
2023/03/08 13:13:09;;;;;;;24.55;22.95;;;20.30;99.90;;;;;;4979249;28;20046;-87
2023/03/08 13:15:39;;;;;;;23.88;22.55;;;20.30;99.90;;;;;;4963102;28;20028;-88
2023/03/08 13:18:07;;;;;;;23.88;22.48;;;20.20;99.90;;;;;;4972736;28;20045;-88
2023/03/08 13:21:06;;;;;;;23.35;22.05;;;20.20;99.90;;;;;;5027113;28;20041;-88
2023/03/08 13:23:39;;;;;;;23.67;22.08;;;20.00;99.90;;;;;;5019039;28;20121;-87
2023/03/08 13:26:44;;;;;;;24.33;22.67;;;20.00;99.90;;;;;;5036931;28;20026;-87
2023/03/08 13:29:18;;;;;;;23.37;21.90;;;19.90;99.90;;;;;;5021506;28;20025;-86
2023/03/08 13:31:46;;;;;;;22.45;21.25;;;20.00;99.90;;;;;;5035285;28;20494;-88
2023/03/08 13:34:30;;;;;;;23.52;22.00;;;20.10;99.90;;;;;;5036004;28;20025;-88
2023/03/08 13:36:58;;;;;;;22.63;21.33;;;20.30;99.90;;;;;;5018919;28;20025;-88
2023/03/08 13:39:28;;;;;;;23.38;21.88;;;20.30;99.90;;;;;;5030876;28;20030;-88
2023/03/08 13:42:11;;;;;;;22.92;21.63;;;20.20;99.90;;;;;;5035586;28;20022;-89
2023/03/08 13:44:38;;;;;;;23.70;22.15;;;20.20;99.90;;;;;;5035642;28;20445;-92
2023/03/08 13:47:32;;;;;;;23.73;22.33;;;20.40;99.90;;;;;;5018177;28;20083;-91
2023/03/08 13:49:59;;;;;;;23.85;22.45;;;20.30;99.90;;;;;;5036177;28;20026;-89
2023/03/08 13:52:31;;;;;;;23.70;22.30;;;20.10;99.90;;;;;;5035822;28;20045;-88
2023/03/08 13:55:02;;;;;;;23.58;21.80;;;20.00;99.90;;;;;;5035249;28;20029;-87
2023/03/08 13:57:39;;;;;;;22.67;21.38;;;20.10;99.90;;;;;;5018654;28;20022;-91
2023/03/08 14:00:29;;;;;;;23.33;21.70;;;19.90;99.90;;;;;;5035534;28;20030;-87
2023/03/08 14:02:56;;;;;;;23.27;21.77;;;19.90;99.90;;;;;;5034700;28;20026;-88
2023/03/08 14:05:32;;;;;;;22.80;21.40;;;19.60;99.90;;;;;;5034844;28;20029;-87
2023/03/08 14:08:02;;;;;;;22.90;21.48;;;19.50;99.90;;;;;;5034742;28;20120;-87
2023/03/08 14:10:50;;;;;;;22.33;21.13;;;19.30;99.90;;;;;;5034366;28;20025;-87
2023/03/08 14:13:37;;;;;;;22.30;20.90;;;18.80;99.90;;;;;;5034421;28;20053;-88
2023/03/08 14:16:20;;;;;;;22.77;21.35;;;18.70;99.90;;;;;;5050132;28;20474;-90
2023/03/08 14:18:47;;;;;;;22.50;21.20;;;18.90;99.90;;;;;;5023233;28;20021;-87
2023/03/08 14:21:20;;;;;;;22.48;21.08;;;18.60;99.90;;;;;;5018498;28;20026;-88
2023/03/08 14:23:59;;;;;;;21.73;20.20;;;18.60;99.90;;;;;;5017894;28;20051;-87
2023/03/08 14:26:59;;;;;;;22.70;21.40;;;18.70;99.90;;;;;;5017626;28;20025;-87
2023/03/08 14:29:28;;;;;;;22.70;21.23;;;18.50;99.90;;;;;;5016862;28;20180;-89
2023/03/08 14:32:11;;;;;;;22.88;21.35;;;18.40;99.90;;;;;;5032571;28;20087;-89
2023/03/08 14:34:48;;;;;;;22.00;20.60;;;18.30;99.90;;;;;;5020096;28;20037;-87
2023/03/08 14:37:27;;;;;;;21.08;19.58;;;18.30;99.90;;;;;;5034459;28;20107;-86
2023/03/08 14:40:25;;;;;;;21.77;20.10;;;18.20;99.90;;;;;;5021998;28;20700;-88
2023/03/08 14:43:04;;;;;;;21.27;19.88;;;18.20;99.90;;;;;;5017072;28;20525;-90
2023/03/08 14:45:57;;;;;;;20.45;19.10;;;18.00;99.90;;;;;;5001071;28;20129;-88
2023/03/08 14:48:43;;;;;;;20.10;19.00;;;18.00;99.90;;;;;;5000377;28;20099;-88
2023/03/08 14:51:19;;;;;;;19.83;18.63;;;17.90;99.90;;;;;;5017384;28;20036;-90
2023/03/08 14:54:22;;;;;;;20.55;19.05;;;17.90;99.90;;;;;;5025525;28;20057;-91
2023/03/08 14:56:49;;;;;;;19.80;18.60;;;17.80;99.90;;;;;;5016901;28;20033;-87
2023/03/08 14:59:17;;;;;;;19.75;18.55;;;17.60;99.90;;;;;;5019345;28;20088;-88
2023/03/08 15:01:43;;;;;;;20.25;18.67;;;17.60;99.90;;;;;;5019054;28;20104;-93
2023/03/08 15:04:22;;;;;;;22.50;20.73;;;17.50;99.90;;;;;;5036368;28;20032;-87
2023/03/08 15:06:50;;;;;;;20.75;19.30;;;17.30;99.90;;;;;;5033683;28;20042;-87
2023/03/08 15:09:18;;;;;;;19.85;18.50;;;17.30;99.90;;;;;;5017041;28;20030;-85
2023/03/08 16:17:37;;;;;;;25.08;22.50;;;15.20;99.90;;;;;;5287028;23;20529;-93
2023/03/08 16:26:47;;;;;;;20.25;18.83;;;14.90;99.90;;;;;;5514977;23;20108;-92
2023/03/08 16:29:13;;;;;;;19.67;18.38;;;14.80;99.90;;;;;;4980977;28;20030;-92
2023/03/08 16:31:45;;;;;;;19.67;18.20;;;14.70;99.90;;;;;;4987460;28;20026;-93
2023/03/08 16:34:46;;;;;;;;;;;;;;;;;;;;;
2023/03/08 16:41:48;;;;;;;20.05;18.75;;;14.20;99.90;;;;;;4896418;29;20036;-92
2023/03/08 16:44:21;;;;;;;20.25;18.88;;;14.10;99.90;;;;;;4864198;29;20029;-93
2023/03/08 16:47:05;;;;;;;20.17;18.88;;;14.00;99.90;;;;;;4854704;29;20065;-92
2023/03/08 16:49:44;;;;;;;21.60;20.10;;;13.90;99.90;;;;;;4855268;29;20046;-92
2023/03/08 16:52:21;;;;;;;21.63;20.23;;;13.80;99.90;;;;;;4855525;29;20056;-94
2023/03/08 16:54:50;;;;;;;22.67;21.05;;;13.70;99.90;;;;;;4859667;29;20048;-93
2023/03/08 16:57:48;;;;;;;36.60;31.20;;;13.70;99.90;;;;;;4857541;29;20041;-92
2023/03/08 19:11:33;;;;;;;19.55;17.55;;;12.50;99.90;;;;;;2051546;22;20458;-93
2023/03/08 19:14:02;;;;;;;17.63;16.13;;;12.40;99.90;;;;;;5146523;23;20057;-94
2023/03/08 19:16:31;;;;;;;17.75;16.23;;;12.50;99.90;;;;;;5017337;28;20022;-93
2023/03/08 19:19:16;;;;;;;;;;;;;;;;;;;;;
2023/03/08 19:22:49;;;;;;;16.05;14.55;;;12.30;99.90;;;;;;5039037;23;20086;-94
2023/03/08 19:39:18;;;;;;;19.95;13.60;;;12.00;99.90;;;;;;5466837;22;20054;31
2023/03/08 19:41:58;;;;;;;16.02;13.25;;;12.00;99.90;;;;;;4945564;29;20050;-94
2023/03/08 19:44:29;;;;;;;18.77;12.88;;;11.90;99.90;;;;;;4938457;29;20046;-94
2023/03/08 19:47:04;;;;;;;14.38;12.85;;;11.90;99.90;;;;;;4951964;29;20063;-94
2023/03/08 19:49:37;;;;;;;16.70;12.55;;;11.90;99.90;;;;;;4950994;29;20043;-94
2023/03/08 19:52:16;;;;;;;16.27;12.88;;;11.80;99.90;;;;;;4977741;28;20035;-94
2023/03/08 19:55:01;;;;;;;18.92;14.48;;;11.80;99.90;;;;;;5165317;23;20055;-94
2023/03/08 19:57:40;;;;;;;16.77;13.63;;;11.70;99.90;;;;;;4949554;29;20095;-94
2023/03/08 20:00:17;;;;;;;20.67;13.88;;;11.70;99.90;;;;;;4907032;29;20130;-84
2023/03/08 20:02:44;;;;;;;20.17;13.68;;;11.70;99.90;;;;;;4921563;29;20122;-86
2023/03/08 20:05:12;;;;;;;21.30;13.15;;;11.70;99.90;;;;;;4902566;29;20035;-85
2023/03/08 20:07:39;;;;;;;19.45;14.77;;;11.70;99.90;;;;;;4902615;29;20035;-85
2023/03/08 20:10:06;;;;;;;20.52;13.85;;;11.70;99.90;;;;;;4902134;29;20630;-84
2023/03/08 20:12:32;;;;;;;21.77;13.77;;;11.70;99.90;;;;;;4918281;29;20481;-83
2023/03/08 20:14:59;;;;;;;20.05;13.80;;;11.70;99.90;;;;;;4904865;29;20028;-84
2023/03/08 20:17:30;;;;;;;19.52;14.25;;;11.60;99.90;;;;;;4918318;29;20039;-83
2023/03/08 20:20:04;;;;;;;21.02;13.75;;;11.50;99.90;;;;;;4921941;29;20087;-85
2023/03/08 20:22:34;;;;;;;18.17;14.18;;;11.50;99.90;;;;;;4906538;29;20175;-85
2023/03/08 20:25:02;;;;;;;22.25;15.45;;;11.50;99.90;;;;;;4905586;29;20417;-81
2023/03/08 20:27:30;;;;;;;22.13;16.02;;;11.50;99.90;;;;;;4941650;28;20544;-80
2023/03/08 20:29:59;;;;;;;27.20;18.33;;;11.50;99.90;;;;;;4961690;28;20515;-81
2023/03/08 20:32:28;;;;;;;23.67;17.45;;;11.50;99.90;;;;;;4959908;28;20400;-81
2023/03/08 20:34:55;;;;;;;23.73;17.00;;;11.50;99.90;;;;;;4959862;28;20061;-81
2023/03/08 20:37:21;;;;;;;24.45;17.38;;;11.40;99.90;;;;;;4959383;28;20022;-81
2023/03/08 20:39:55;;;;;;;30.70;20.77;;;11.40;99.90;;;;;;4944385;28;20058;-86
2023/03/08 20:42:21;;;;;;;41.13;25.15;;;11.40;99.90;;;;;;4943998;28;20027;-81
2023/03/08 20:44:48;;;;;;;33.33;22.45;;;11.40;99.90;;;;;;4959086;28;20026;-81
2023/03/08 20:47:14;;;;;;;35.20;19.88;;;11.40;99.90;;;;;;4951173;28;20069;-81
2023/03/08 20:49:41;;;;;;;41.55;20.75;;;11.40;99.90;;;;;;4946241;28;20023;-86
2023/03/08 20:52:08;;;;;;;29.67;19.00;;;11.40;99.90;;;;;;4944586;28;20027;-81
2023/03/08 20:54:35;;;;;;;27.85;19.80;;;11.50;99.90;;;;;;4961056;28;20042;-81
2023/03/08 20:57:01;;;;;;;31.48;18.10;;;11.50;99.90;;;;;;4996769;28;20018;-81
2023/03/08 20:59:28;;;;;;;25.20;15.75;;;11.50;99.90;;;;;;4977384;28;20113;-80
2023/03/08 21:01:55;;;;;;;23.33;14.10;;;11.50;99.90;;;;;;4978115;28;20069;-81
2023/03/08 21:04:22;;;;;;;19.27;14.55;;;11.60;99.90;;;;;;4978006;28;20105;-80
2023/03/08 21:06:49;;;;;;;25.67;16.20;;;11.60;99.90;;;;;;4980105;28;20033;-80
2023/03/08 21:09:15;;;;;;;20.52;14.48;;;11.60;99.90;;;;;;4977951;28;20030;-81
2023/03/08 21:11:42;;;;;;;27.70;14.75;;;11.60;99.90;;;;;;4964407;28;20023;-81
2023/03/08 21:14:09;;;;;;;25.60;14.80;;;11.50;99.90;;;;;;4960821;28;20066;-81
2023/03/08 21:16:35;;;;;;;26.55;15.43;;;11.50;99.90;;;;;;4977483;28;20503;-81
2023/03/08 21:19:04;;;;;;;24.45;14.85;;;11.50;99.90;;;;;;4961780;28;20034;-81
2023/03/08 21:21:35;;;;;;;25.35;14.27;;;11.40;99.90;;;;;;4979166;28;20069;-83
2023/03/08 21:24:05;;;;;;;21.52;14.77;;;11.30;99.90;;;;;;5001727;28;20026;-83
2023/03/08 21:26:33;;;;;;;23.15;16.17;;;11.20;99.90;;;;;;4982151;28;20574;-84
2023/03/08 21:29:02;;;;;;;28.83;18.25;;;11.20;99.90;;;;;;4998896;28;20030;-84
2023/03/08 21:31:31;;;;;;;35.00;16.88;;;11.10;99.90;;;;;;4998718;28;20109;-83
2023/03/08 21:34:00;;;;;;;22.40;15.88;;;11.00;99.90;;;;;;4990886;28;20037;-84
2023/03/08 21:36:26;;;;;;;26.73;15.90;;;11.00;99.90;;;;;;4998716;28;20057;-83
2023/03/08 21:38:55;;;;;;;34.58;17.02;;;10.90;99.90;;;;;;5015164;28;20038;-84
2023/03/08 21:41:24;;;;;;;22.20;16.10;;;10.90;99.90;;;;;;4998809;28;20056;-83
2023/03/08 21:43:51;;;;;;;27.67;17.02;;;10.90;99.90;;;;;;4994114;28;20030;-83
2023/03/08 21:46:17;;;;;;;22.63;16.88;;;11.00;99.90;;;;;;4962972;28;20029;-84
2023/03/08 21:48:46;;;;;;;24.63;16.83;;;11.00;99.90;;;;;;4962752;28;20513;-83
2023/03/08 21:51:14;;;;;;;24.30;15.77;;;11.00;99.90;;;;;;4973452;28;20026;-83
2023/03/08 21:53:41;;;;;;;30.42;15.65;;;11.00;99.90;;;;;;4981610;28;20120;-84
2023/03/08 21:56:10;;;;;;;27.88;16.08;;;10.90;99.90;;;;;;5014515;28;20487;-84
2023/03/08 21:58:37;;;;;;;26.58;15.40;;;10.90;99.90;;;;;;4998192;28;20391;-83
2023/03/08 22:01:05;;;;;;;26.05;16.23;;;10.90;99.90;;;;;;5004570;28;20440;-82